sensor_id;sensor_type;location;lat;lon;timestamp;P1;durP1;ratioP1;P2;durP2;ratioP2
2656;SDS011;1338;48.176;11.792;2023-11-19T00:00:37;2.80;;;2.60;;
2656;SDS011;1338;48.176;11.792;2023-11-19T00:03:19;3.10;;;2.90;;
2656;SDS011;1338;48.176;11.792;2023-11-19T00:05:48;3.47;;;3.17;;
2656;SDS011;1338;48.176;11.792;2023-11-19T00:08:18;3.20;;;3.00;;
2656;SDS011;1338;48.176;11.792;2023-11-19T00:10:48;3.70;;;3.40;;
2656;SDS011;1338;48.176;11.792;2023-11-19T00:13:17;3.47;;;3.17;;
2656;SDS011;1338;48.176;11.792;2023-11-19T00:15:48;3.43;;;3.23;;
2656;SDS011;1338;48.176;11.792;2023-11-19T00:18:17;3.30;;;3.00;;
2656;SDS011;1338;48.176;11.792;2023-11-19T00:20:48;3.40;;;3.10;;
2656;SDS011;1338;48.176;11.792;2023-11-19T00:23:21;3.80;;;3.40;;
2656;SDS011;1338;48.176;11.792;2023-11-19T00:25:53;3.53;;;3.23;;
2656;SDS011;1338;48.176;11.792;2023-11-19T00:28:21;2.87;;;2.67;;
2656;SDS011;1338;48.176;11.792;2023-11-19T00:30:54;3.33;;;3.03;;
2656;SDS011;1338;48.176;11.792;2023-11-19T00:33:24;3.07;;;2.80;;
2656;SDS011;1338;48.176;11.792;2023-11-19T00:35:52;3.13;;;2.83;;
2656;SDS011;1338;48.176;11.792;2023-11-19T00:38:23;3.27;;;3.00;;
2656;SDS011;1338;48.176;11.792;2023-11-19T00:40:51;3.50;;;3.07;;
2656;SDS011;1338;48.176;11.792;2023-11-19T00:43:21;2.87;;;2.60;;
2656;SDS011;1338;48.176;11.792;2023-11-19T00:45:50;3.10;;;2.90;;
2656;SDS011;1338;48.176;11.792;2023-11-19T00:48:22;3.60;;;3.30;;
2656;SDS011;1338;48.176;11.792;2023-11-19T00:50:52;3.20;;;3.00;;
2656;SDS011;1338;48.176;11.792;2023-11-19T00:53:20;2.80;;;2.60;;
2656;SDS011;1338;48.176;11.792;2023-11-19T00:55:50;3.10;;;2.80;;
2656;SDS011;1338;48.176;11.792;2023-11-19T00:58:20;3.20;;;2.60;;
2656;SDS011;1338;48.176;11.792;2023-11-19T01:00:48;2.50;;;2.30;;
2656;SDS011;1338;48.176;11.792;2023-11-19T01:03:18;2.70;;;2.50;;
2656;SDS011;1338;48.176;11.792;2023-11-19T01:05:47;2.87;;;2.60;;
2656;SDS011;1338;48.176;11.792;2023-11-19T01:08:16;2.67;;;2.47;;
2656;SDS011;1338;48.176;11.792;2023-11-19T01:10:46;2.50;;;2.30;;
2656;SDS011;1338;48.176;11.792;2023-11-19T01:13:14;2.70;;;2.50;;
2656;SDS011;1338;48.176;11.792;2023-11-19T01:15:43;3.00;;;2.40;;
2656;SDS011;1338;48.176;11.792;2023-11-19T01:18:11;2.63;;;2.43;;
2656;SDS011;1338;48.176;11.792;2023-11-19T01:20:40;2.50;;;2.30;;
2656;SDS011;1338;48.176;11.792;2023-11-19T01:23:09;2.47;;;2.27;;
2656;SDS011;1338;48.176;11.792;2023-11-19T01:25:37;2.60;;;2.40;;
2656;SDS011;1338;48.176;11.792;2023-11-19T01:28:07;2.50;;;2.30;;
2656;SDS011;1338;48.176;11.792;2023-11-19T01:30:38;2.40;;;2.20;;
2656;SDS011;1338;48.176;11.792;2023-11-19T01:33:08;2.80;;;2.20;;
2656;SDS011;1338;48.176;11.792;2023-11-19T01:35:37;2.20;;;2.10;;
2656;SDS011;1338;48.176;11.792;2023-11-19T01:38:06;2.43;;;2.30;;
2656;SDS011;1338;48.176;11.792;2023-11-19T01:40:35;2.03;;;1.90;;
2656;SDS011;1338;48.176;11.792;2023-11-19T01:43:04;2.57;;;2.37;;
2656;SDS011;1338;48.176;11.792;2023-11-19T01:45:39;2.63;;;2.43;;
2656;SDS011;1338;48.176;11.792;2023-11-19T01:48:08;4.00;;;2.10;;
2656;SDS011;1338;48.176;11.792;2023-11-19T01:50:38;2.10;;;2.00;;
2656;SDS011;1338;48.176;11.792;2023-11-19T01:53:06;2.03;;;1.93;;
2656;SDS011;1338;48.176;11.792;2023-11-19T01:55:35;2.30;;;2.20;;
2656;SDS011;1338;48.176;11.792;2023-11-19T01:58:06;2.27;;;1.90;;
2656;SDS011;1338;48.176;11.792;2023-11-19T02:00:37;2.00;;;1.90;;
2656;SDS011;1338;48.176;11.792;2023-11-19T02:03:06;1.80;;;1.70;;
2656;SDS011;1338;48.176;11.792;2023-11-19T02:05:35;1.73;;;1.63;;
2656;SDS011;1338;48.176;11.792;2023-11-19T02:08:05;1.93;;;1.83;;
2656;SDS011;1338;48.176;11.792;2023-11-19T02:10:36;1.83;;;1.70;;
2656;SDS011;1338;48.176;11.792;2023-11-19T02:13:09;1.60;;;1.50;;
2656;SDS011;1338;48.176;11.792;2023-11-19T02:15:42;1.73;;;1.63;;
2656;SDS011;1338;48.176;11.792;2023-11-19T02:18:17;1.77;;;1.67;;
2656;SDS011;1338;48.176;11.792;2023-11-19T02:20:49;2.03;;;1.90;;
2656;SDS011;1338;48.176;11.792;2023-11-19T02:23:18;1.80;;;1.70;;
2656;SDS011;1338;48.176;11.792;2023-11-19T02:25:53;2.27;;;1.50;;
2656;SDS011;1338;48.176;11.792;2023-11-19T02:28:29;1.83;;;1.73;;
2656;SDS011;1338;48.176;11.792;2023-11-19T02:30:58;1.73;;;1.63;;
2656;SDS011;1338;48.176;11.792;2023-11-19T02:33:26;1.77;;;1.67;;
2656;SDS011;1338;48.176;11.792;2023-11-19T02:35:56;1.57;;;1.47;;
2656;SDS011;1338;48.176;11.792;2023-11-19T02:38:26;1.90;;;1.80;;
2656;SDS011;1338;48.176;11.792;2023-11-19T02:40:55;1.83;;;1.73;;
2656;SDS011;1338;48.176;11.792;2023-11-19T02:43:23;1.60;;;1.50;;
2656;SDS011;1338;48.176;11.792;2023-11-19T02:45:53;1.90;;;1.70;;
2656;SDS011;1338;48.176;11.792;2023-11-19T02:48:26;2.10;;;1.90;;
2656;SDS011;1338;48.176;11.792;2023-11-19T02:50:54;1.60;;;1.50;;
2656;SDS011;1338;48.176;11.792;2023-11-19T02:53:24;1.67;;;1.57;;
2656;SDS011;1338;48.176;11.792;2023-11-19T02:55:55;1.60;;;1.50;;
2656;SDS011;1338;48.176;11.792;2023-11-19T02:58:28;1.67;;;1.57;;
2656;SDS011;1338;48.176;11.792;2023-11-19T03:00:58;2.10;;;1.90;;
2656;SDS011;1338;48.176;11.792;2023-11-19T03:03:36;1.90;;;1.80;;
2656;SDS011;1338;48.176;11.792;2023-11-19T03:06:07;1.60;;;1.50;;
2656;SDS011;1338;48.176;11.792;2023-11-19T03:08:37;1.60;;;1.50;;
2656;SDS011;1338;48.176;11.792;2023-11-19T03:11:06;1.80;;;1.70;;
2656;SDS011;1338;48.176;11.792;2023-11-19T03:13:39;2.00;;;1.80;;
2656;SDS011;1338;48.176;11.792;2023-11-19T03:16:11;2.00;;;1.80;;
2656;SDS011;1338;48.176;11.792;2023-11-19T03:18:44;1.87;;;1.63;;
2656;SDS011;1338;48.176;11.792;2023-11-19T03:21:13;2.00;;;1.90;;
2656;SDS011;1338;48.176;11.792;2023-11-19T03:23:42;1.83;;;1.73;;
2656;SDS011;1338;48.176;11.792;2023-11-19T03:26:12;1.77;;;1.67;;
2656;SDS011;1338;48.176;11.792;2023-11-19T03:28:40;1.97;;;1.80;;
2656;SDS011;1338;48.176;11.792;2023-11-19T03:31:08;1.63;;;1.53;;
2656;SDS011;1338;48.176;11.792;2023-11-19T03:33:40;3.60;;;1.90;;
2656;SDS011;1338;48.176;11.792;2023-11-19T03:36:09;2.00;;;1.80;;
2656;SDS011;1338;48.176;11.792;2023-11-19T03:38:39;1.87;;;1.70;;
2656;SDS011;1338;48.176;11.792;2023-11-19T03:41:12;1.83;;;1.73;;
2656;SDS011;1338;48.176;11.792;2023-11-19T03:43:42;2.10;;;1.90;;
2656;SDS011;1338;48.176;11.792;2023-11-19T03:46:17;2.00;;;1.90;;
2656;SDS011;1338;48.176;11.792;2023-11-19T03:48:49;1.80;;;1.70;;
2656;SDS011;1338;48.176;11.792;2023-11-19T03:51:18;2.60;;;1.70;;
2656;SDS011;1338;48.176;11.792;2023-11-19T03:53:47;1.67;;;1.57;;
2656;SDS011;1338;48.176;11.792;2023-11-19T03:56:15;2.13;;;1.93;;
2656;SDS011;1338;48.176;11.792;2023-11-19T03:58:43;1.90;;;1.70;;
2656;SDS011;1338;48.176;11.792;2023-11-19T04:01:12;2.10;;;2.00;;
2656;SDS011;1338;48.176;11.792;2023-11-19T04:03:42;1.93;;;1.83;;
2656;SDS011;1338;48.176;11.792;2023-11-19T04:06:15;1.73;;;1.63;;
2656;SDS011;1338;48.176;11.792;2023-11-19T04:08:45;1.77;;;1.67;;
2656;SDS011;1338;48.176;11.792;2023-11-19T04:11:13;1.77;;;1.67;;
2656;SDS011;1338;48.176;11.792;2023-11-19T04:13:42;1.87;;;1.67;;
2656;SDS011;1338;48.176;11.792;2023-11-19T04:16:10;1.93;;;1.67;;
2656;SDS011;1338;48.176;11.792;2023-11-19T04:18:40;2.53;;;1.63;;
2656;SDS011;1338;48.176;11.792;2023-11-19T04:21:09;1.87;;;1.77;;
2656;SDS011;1338;48.176;11.792;2023-11-19T04:23:40;1.93;;;1.73;;
2656;SDS011;1338;48.176;11.792;2023-11-19T04:26:10;1.80;;;1.70;;
2656;SDS011;1338;48.176;11.792;2023-11-19T04:28:40;2.07;;;1.87;;
2656;SDS011;1338;48.176;11.792;2023-11-19T04:31:11;2.13;;;1.93;;
2656;SDS011;1338;48.176;11.792;2023-11-19T04:33:42;1.73;;;1.63;;
2656;SDS011;1338;48.176;11.792;2023-11-19T04:36:10;1.83;;;1.73;;
2656;SDS011;1338;48.176;11.792;2023-11-19T04:38:42;2.13;;;2.00;;
2656;SDS011;1338;48.176;11.792;2023-11-19T04:41:13;2.30;;;2.10;;
2656;SDS011;1338;48.176;11.792;2023-11-19T04:43:42;1.70;;;1.60;;
2656;SDS011;1338;48.176;11.792;2023-11-19T04:46:10;1.60;;;1.50;;
2656;SDS011;1338;48.176;11.792;2023-11-19T04:48:39;1.90;;;1.80;;
2656;SDS011;1338;48.176;11.792;2023-11-19T04:51:08;3.00;;;2.40;;
2656;SDS011;1338;48.176;11.792;2023-11-19T04:53:36;2.00;;;1.90;;
2656;SDS011;1338;48.176;11.792;2023-11-19T04:56:09;2.57;;;2.20;;
2656;SDS011;1338;48.176;11.792;2023-11-19T04:58:39;2.40;;;2.20;;
2656;SDS011;1338;48.176;11.792;2023-11-19T05:01:13;2.33;;;2.13;;
2656;SDS011;1338;48.176;11.792;2023-11-19T05:03:45;2.60;;;2.37;;
2656;SDS011;1338;48.176;11.792;2023-11-19T05:06:15;2.40;;;2.20;;
2656;SDS011;1338;48.176;11.792;2023-11-19T05:08:44;2.40;;;2.10;;
2656;SDS011;1338;48.176;11.792;2023-11-19T05:11:15;2.73;;;2.53;;
2656;SDS011;1338;48.176;11.792;2023-11-19T05:13:46;2.90;;;2.70;;
2656;SDS011;1338;48.176;11.792;2023-11-19T05:16:16;2.60;;;2.40;;
2656;SDS011;1338;48.176;11.792;2023-11-19T05:18:48;2.73;;;2.53;;
2656;SDS011;1338;48.176;11.792;2023-11-19T05:21:18;3.10;;;2.90;;
2656;SDS011;1338;48.176;11.792;2023-11-19T05:23:47;2.90;;;2.70;;
2656;SDS011;1338;48.176;11.792;2023-11-19T05:26:20;2.63;;;2.43;;
2656;SDS011;1338;48.176;11.792;2023-11-19T05:28:50;2.80;;;2.60;;
2656;SDS011;1338;48.176;11.792;2023-11-19T05:31:19;1.80;;;1.70;;
2656;SDS011;1338;48.176;11.792;2023-11-19T05:33:48;2.20;;;2.10;;
2656;SDS011;1338;48.176;11.792;2023-11-19T05:36:17;3.37;;;2.13;;
2656;SDS011;1338;48.176;11.792;2023-11-19T05:38:46;2.60;;;2.40;;
2656;SDS011;1338;48.176;11.792;2023-11-19T05:41:15;2.10;;;2.00;;
2656;SDS011;1338;48.176;11.792;2023-11-19T05:43:45;2.23;;;2.03;;
2656;SDS011;1338;48.176;11.792;2023-11-19T05:46:14;2.00;;;1.90;;
2656;SDS011;1338;48.176;11.792;2023-11-19T05:48:46;2.13;;;1.93;;
2656;SDS011;1338;48.176;11.792;2023-11-19T05:51:15;2.03;;;1.70;;
2656;SDS011;1338;48.176;11.792;2023-11-19T05:53:44;1.70;;;1.60;;
2656;SDS011;1338;48.176;11.792;2023-11-19T05:56:13;2.10;;;1.90;;
2656;SDS011;1338;48.176;11.792;2023-11-19T05:58:42;1.97;;;1.83;;
2656;SDS011;1338;48.176;11.792;2023-11-19T06:01:15;1.80;;;1.70;;
2656;SDS011;1338;48.176;11.792;2023-11-19T06:03:44;2.10;;;2.00;;
2656;SDS011;1338;48.176;11.792;2023-11-19T06:06:17;2.00;;;1.90;;
2656;SDS011;1338;48.176;11.792;2023-11-19T06:08:47;1.87;;;1.60;;
2656;SDS011;1338;48.176;11.792;2023-11-19T06:11:17;2.10;;;1.90;;
2656;SDS011;1338;48.176;11.792;2023-11-19T06:13:48;1.90;;;1.80;;
2656;SDS011;1338;48.176;11.792;2023-11-19T06:16:18;1.80;;;1.70;;
2656;SDS011;1338;48.176;11.792;2023-11-19T06:18:46;1.70;;;1.60;;
2656;SDS011;1338;48.176;11.792;2023-11-19T06:21:16;1.83;;;1.73;;
2656;SDS011;1338;48.176;11.792;2023-11-19T06:23:44;1.80;;;1.70;;
2656;SDS011;1338;48.176;11.792;2023-11-19T06:26:14;1.93;;;1.83;;
2656;SDS011;1338;48.176;11.792;2023-11-19T06:28:42;1.77;;;1.67;;
2656;SDS011;1338;48.176;11.792;2023-11-19T06:31:12;2.03;;;1.83;;
2656;SDS011;1338;48.176;11.792;2023-11-19T06:33:42;1.67;;;1.57;;
2656;SDS011;1338;48.176;11.792;2023-11-19T06:36:13;2.47;;;1.70;;
2656;SDS011;1338;48.176;11.792;2023-11-19T06:38:44;1.60;;;1.50;;
2656;SDS011;1338;48.176;11.792;2023-11-19T06:41:13;1.70;;;1.60;;
2656;SDS011;1338;48.176;11.792;2023-11-19T06:43:41;1.73;;;1.63;;
2656;SDS011;1338;48.176;11.792;2023-11-19T06:46:16;2.37;;;1.57;;
2656;SDS011;1338;48.176;11.792;2023-11-19T06:48:45;1.80;;;1.70;;
2656;SDS011;1338;48.176;11.792;2023-11-19T06:51:18;1.60;;;1.50;;
2656;SDS011;1338;48.176;11.792;2023-11-19T06:53:50;1.63;;;1.53;;
2656;SDS011;1338;48.176;11.792;2023-11-19T06:56:19;1.53;;;1.43;;
2656;SDS011;1338;48.176;11.792;2023-11-19T06:58:49;1.50;;;1.40;;
2656;SDS011;1338;48.176;11.792;2023-11-19T07:01:22;1.40;;;1.30;;
2656;SDS011;1338;48.176;11.792;2023-11-19T07:03:54;1.50;;;1.40;;
2656;SDS011;1338;48.176;11.792;2023-11-19T07:06:25;1.40;;;1.30;;
2656;SDS011;1338;48.176;11.792;2023-11-19T07:08:56;1.33;;;1.23;;
2656;SDS011;1338;48.176;11.792;2023-11-19T07:11:25;1.40;;;1.30;;
2656;SDS011;1338;48.176;11.792;2023-11-19T07:13:53;1.60;;;1.50;;
2656;SDS011;1338;48.176;11.792;2023-11-19T07:16:24;1.50;;;1.40;;
2656;SDS011;1338;48.176;11.792;2023-11-19T07:18:54;1.50;;;1.40;;
2656;SDS011;1338;48.176;11.792;2023-11-19T07:21:22;1.70;;;1.20;;
2656;SDS011;1338;48.176;11.792;2023-11-19T07:23:51;1.30;;;1.20;;
2656;SDS011;1338;48.176;11.792;2023-11-19T07:26:19;1.40;;;1.30;;
2656;SDS011;1338;48.176;11.792;2023-11-19T07:28:48;1.40;;;1.30;;
2656;SDS011;1338;48.176;11.792;2023-11-19T07:31:17;1.40;;;1.30;;
2656;SDS011;1338;48.176;11.792;2023-11-19T07:33:48;1.47;;;1.37;;
2656;SDS011;1338;48.176;11.792;2023-11-19T07:36:16;1.60;;;1.50;;
2656;SDS011;1338;48.176;11.792;2023-11-19T07:38:45;1.40;;;1.30;;
2656;SDS011;1338;48.176;11.792;2023-11-19T07:41:17;1.53;;;1.30;;
2656;SDS011;1338;48.176;11.792;2023-11-19T07:43:46;1.30;;;1.20;;
2656;SDS011;1338;48.176;11.792;2023-11-19T07:46:16;1.40;;;1.30;;
2656;SDS011;1338;48.176;11.792;2023-11-19T07:48:47;1.30;;;1.10;;
2656;SDS011;1338;48.176;11.792;2023-11-19T07:51:17;1.30;;;1.20;;
2656;SDS011;1338;48.176;11.792;2023-11-19T07:53:47;2.73;;;1.17;;
2656;SDS011;1338;48.176;11.792;2023-11-19T07:56:17;1.40;;;1.20;;
2656;SDS011;1338;48.176;11.792;2023-11-19T07:58:45;1.20;;;1.10;;
2656;SDS011;1338;48.176;11.792;2023-11-19T08:01:15;1.20;;;1.10;;
2656;SDS011;1338;48.176;11.792;2023-11-19T08:03:43;1.40;;;1.13;;
2656;SDS011;1338;48.176;11.792;2023-11-19T08:06:17;1.40;;;1.30;;
2656;SDS011;1338;48.176;11.792;2023-11-19T08:08:47;1.53;;;1.40;;
2656;SDS011;1338;48.176;11.792;2023-11-19T08:11:19;1.10;;;1.00;;
2656;SDS011;1338;48.176;11.792;2023-11-19T08:13:49;1.43;;;1.30;;
2656;SDS011;1338;48.176;11.792;2023-11-19T08:16:18;1.30;;;1.20;;
2656;SDS011;1338;48.176;11.792;2023-11-19T08:18:46;1.20;;;1.10;;
2656;SDS011;1338;48.176;11.792;2023-11-19T08:21:21;1.60;;;1.37;;
2656;SDS011;1338;48.176;11.792;2023-11-19T08:23:51;1.30;;;1.20;;
2656;SDS011;1338;48.176;11.792;2023-11-19T08:26:19;1.43;;;1.33;;
2656;SDS011;1338;48.176;11.792;2023-11-19T08:28:49;1.13;;;1.03;;
2656;SDS011;1338;48.176;11.792;2023-11-19T08:31:18;1.20;;;1.10;;
2656;SDS011;1338;48.176;11.792;2023-11-19T08:33:47;1.40;;;1.30;;
2656;SDS011;1338;48.176;11.792;2023-11-19T08:36:16;1.30;;;1.20;;
2656;SDS011;1338;48.176;11.792;2023-11-19T08:38:47;1.33;;;1.23;;
2656;SDS011;1338;48.176;11.792;2023-11-19T08:41:17;1.30;;;1.20;;
2656;SDS011;1338;48.176;11.792;2023-11-19T08:43:46;1.30;;;1.20;;
2656;SDS011;1338;48.176;11.792;2023-11-19T08:46:15;1.30;;;1.20;;
2656;SDS011;1338;48.176;11.792;2023-11-19T08:48:43;1.30;;;1.20;;
2656;SDS011;1338;48.176;11.792;2023-11-19T08:51:15;1.50;;;1.40;;
2656;SDS011;1338;48.176;11.792;2023-11-19T08:53:44;1.60;;;1.50;;
2656;SDS011;1338;48.176;11.792;2023-11-19T08:56:16;1.90;;;1.30;;
2656;SDS011;1338;48.176;11.792;2023-11-19T08:58:45;16.53;;;10.30;;
2656;SDS011;1338;48.176;11.792;2023-11-19T09:01:13;15.70;;;9.47;;
2656;SDS011;1338;48.176;11.792;2023-11-19T09:03:44;7.30;;;5.90;;
2656;SDS011;1338;48.176;11.792;2023-11-19T09:06:16;3.13;;;2.83;;
2656;SDS011;1338;48.176;11.792;2023-11-19T09:08:47;11.60;;;8.50;;
2656;SDS011;1338;48.176;11.792;2023-11-19T09:11:16;3.23;;;2.93;;
2656;SDS011;1338;48.176;11.792;2023-11-19T09:13:45;3.10;;;2.90;;
2656;SDS011;1338;48.176;11.792;2023-11-19T09:16:14;1.40;;;1.27;;
2656;SDS011;1338;48.176;11.792;2023-11-19T09:18:43;1.50;;;1.40;;
2656;SDS011;1338;48.176;11.792;2023-11-19T09:21:15;2.27;;;2.07;;
2656;SDS011;1338;48.176;11.792;2023-11-19T09:23:44;2.90;;;2.70;;
2656;SDS011;1338;48.176;11.792;2023-11-19T09:26:17;1.60;;;1.50;;
2656;SDS011;1338;48.176;11.792;2023-11-19T09:28:46;1.83;;;1.70;;
2656;SDS011;1338;48.176;11.792;2023-11-19T09:31:15;1.70;;;1.60;;
2656;SDS011;1338;48.176;11.792;2023-11-19T09:33:45;1.70;;;1.60;;
2656;SDS011;1338;48.176;11.792;2023-11-19T09:36:17;1.60;;;1.50;;
2656;SDS011;1338;48.176;11.792;2023-11-19T09:38:46;2.03;;;1.93;;
2656;SDS011;1338;48.176;11.792;2023-11-19T09:41:17;1.90;;;1.80;;
2656;SDS011;1338;48.176;11.792;2023-11-19T09:43:47;1.50;;;1.40;;
2656;SDS011;1338;48.176;11.792;2023-11-19T09:46:17;1.43;;;1.33;;
2656;SDS011;1338;48.176;11.792;2023-11-19T09:48:51;1.50;;;1.40;;
2656;SDS011;1338;48.176;11.792;2023-11-19T09:51:22;3.47;;;1.67;;
2656;SDS011;1338;48.176;11.792;2023-11-19T09:53:51;2.37;;;2.00;;
2656;SDS011;1338;48.176;11.792;2023-11-19T09:56:24;1.70;;;1.60;;
2656;SDS011;1338;48.176;11.792;2023-11-19T09:58:57;1.50;;;1.40;;
2656;SDS011;1338;48.176;11.792;2023-11-19T10:01:28;1.50;;;1.40;;
2656;SDS011;1338;48.176;11.792;2023-11-19T10:03:58;1.40;;;1.30;;
2656;SDS011;1338;48.176;11.792;2023-11-19T10:06:29;1.43;;;1.33;;
2656;SDS011;1338;48.176;11.792;2023-11-19T10:08:58;1.40;;;1.30;;
2656;SDS011;1338;48.176;11.792;2023-11-19T10:11:30;1.83;;;1.73;;
2656;SDS011;1338;48.176;11.792;2023-11-19T10:13:59;1.50;;;1.40;;
2656;SDS011;1338;48.176;11.792;2023-11-19T10:16:31;1.60;;;1.50;;
2656;SDS011;1338;48.176;11.792;2023-11-19T10:19:03;1.43;;;1.33;;
2656;SDS011;1338;48.176;11.792;2023-11-19T10:21:33;1.60;;;1.50;;
2656;SDS011;1338;48.176;11.792;2023-11-19T10:24:02;1.83;;;1.73;;
2656;SDS011;1338;48.176;11.792;2023-11-19T10:26:35;1.93;;;1.70;;
2656;SDS011;1338;48.176;11.792;2023-11-19T10:29:04;2.03;;;1.83;;
2656;SDS011;1338;48.176;11.792;2023-11-19T10:31:32;1.83;;;1.73;;
2656;SDS011;1338;48.176;11.792;2023-11-19T10:34:01;1.40;;;1.30;;
2656;SDS011;1338;48.176;11.792;2023-11-19T10:36:37;2.50;;;2.30;;
2656;SDS011;1338;48.176;11.792;2023-11-19T10:39:10;2.17;;;2.07;;
2656;SDS011;1338;48.176;11.792;2023-11-19T10:41:41;1.77;;;1.67;;
2656;SDS011;1338;48.176;11.792;2023-11-19T10:44:10;1.60;;;1.50;;
2656;SDS011;1338;48.176;11.792;2023-11-19T10:46:39;1.43;;;1.33;;
2656;SDS011;1338;48.176;11.792;2023-11-19T10:49:08;1.50;;;1.40;;
2656;SDS011;1338;48.176;11.792;2023-11-19T10:51:41;1.70;;;1.57;;
2656;SDS011;1338;48.176;11.792;2023-11-19T10:54:17;1.57;;;1.47;;
2656;SDS011;1338;48.176;11.792;2023-11-19T10:56:51;1.60;;;1.50;;
2656;SDS011;1338;48.176;11.792;2023-11-19T10:59:28;1.87;;;1.73;;
2656;SDS011;1338;48.176;11.792;2023-11-19T11:02:00;1.70;;;1.60;;
2656;SDS011;1338;48.176;11.792;2023-11-19T11:04:39;1.50;;;1.40;;
2656;SDS011;1338;48.176;11.792;2023-11-19T11:07:10;1.53;;;1.43;;
2656;SDS011;1338;48.176;11.792;2023-11-19T11:09:41;1.50;;;1.40;;
2656;SDS011;1338;48.176;11.792;2023-11-19T11:12:14;1.80;;;1.30;;
2656;SDS011;1338;48.176;11.792;2023-11-19T11:14:48;1.50;;;1.40;;
2656;SDS011;1338;48.176;11.792;2023-11-19T11:17:18;1.90;;;1.50;;
2656;SDS011;1338;48.176;11.792;2023-11-19T11:19:55;1.30;;;1.20;;
2656;SDS011;1338;48.176;11.792;2023-11-19T11:22:24;1.67;;;1.37;;
2656;SDS011;1338;48.176;11.792;2023-11-19T11:25:11;1.47;;;1.37;;
2656;SDS011;1338;48.176;11.792;2023-11-19T11:30:49;1.60;;;1.50;;
2656;SDS011;1338;48.176;11.792;2023-11-19T11:33:38;1.40;;;1.30;;
2656;SDS011;1338;48.176;11.792;2023-11-19T11:36:30;1.50;;;1.40;;
2656;SDS011;1338;48.176;11.792;2023-11-19T11:39:05;1.50;;;1.40;;
2656;SDS011;1338;48.176;11.792;2023-11-19T11:41:35;1.50;;;1.40;;
2656;SDS011;1338;48.176;11.792;2023-11-19T11:44:04;1.40;;;1.30;;
2656;SDS011;1338;48.176;11.792;2023-11-19T11:49:26;1.47;;;1.37;;
2656;SDS011;1338;48.176;11.792;2023-11-19T11:52:01;1.53;;;1.43;;
2656;SDS011;1338;48.176;11.792;2023-11-19T11:54:33;1.57;;;1.33;;
2656;SDS011;1338;48.176;11.792;2023-11-19T11:57:07;1.47;;;1.37;;
2656;SDS011;1338;48.176;11.792;2023-11-19T11:59:47;1.50;;;1.40;;
2656;SDS011;1338;48.176;11.792;2023-11-19T12:02:19;2.13;;;1.77;;
2656;SDS011;1338;48.176;11.792;2023-11-19T12:04:49;1.50;;;1.37;;
2656;SDS011;1338;48.176;11.792;2023-11-19T12:07:20;1.53;;;1.40;;
2656;SDS011;1338;48.176;11.792;2023-11-19T12:09:52;1.50;;;1.40;;
2656;SDS011;1338;48.176;11.792;2023-11-19T12:12:37;1.20;;;1.10;;
2656;SDS011;1338;48.176;11.792;2023-11-19T12:15:07;1.30;;;1.20;;
2656;SDS011;1338;48.176;11.792;2023-11-19T12:17:49;1.30;;;1.20;;
2656;SDS011;1338;48.176;11.792;2023-11-19T12:20:21;1.50;;;1.40;;
2656;SDS011;1338;48.176;11.792;2023-11-19T12:22:53;1.30;;;1.20;;
2656;SDS011;1338;48.176;11.792;2023-11-19T12:25:22;1.40;;;1.30;;
2656;SDS011;1338;48.176;11.792;2023-11-19T12:27:52;1.30;;;1.20;;
2656;SDS011;1338;48.176;11.792;2023-11-19T12:30:21;2.70;;;1.23;;
2656;SDS011;1338;48.176;11.792;2023-11-19T12:32:55;1.40;;;1.30;;
2656;SDS011;1338;48.176;11.792;2023-11-19T12:35:25;1.70;;;1.60;;
2656;SDS011;1338;48.176;11.792;2023-11-19T12:37:55;1.30;;;1.20;;
2656;SDS011;1338;48.176;11.792;2023-11-19T12:40:24;1.47;;;1.30;;
2656;SDS011;1338;48.176;11.792;2023-11-19T12:42:55;1.60;;;1.20;;
2656;SDS011;1338;48.176;11.792;2023-11-19T12:45:24;1.87;;;1.40;;
2656;SDS011;1338;48.176;11.792;2023-11-19T12:48:05;1.50;;;1.40;;
2656;SDS011;1338;48.176;11.792;2023-11-19T12:50:50;1.37;;;1.27;;
2656;SDS011;1338;48.176;11.792;2023-11-19T12:53:19;1.50;;;1.40;;
2656;SDS011;1338;48.176;11.792;2023-11-19T12:55:49;1.83;;;1.30;;
2656;SDS011;1338;48.176;11.792;2023-11-19T12:58:29;1.30;;;1.20;;
2656;SDS011;1338;48.176;11.792;2023-11-19T13:01:00;1.50;;;1.40;;
2656;SDS011;1338;48.176;11.792;2023-11-19T13:03:34;1.50;;;1.37;;
2656;SDS011;1338;48.176;11.792;2023-11-19T13:06:06;1.40;;;1.30;;
2656;SDS011;1338;48.176;11.792;2023-11-19T13:08:39;1.50;;;1.20;;
2656;SDS011;1338;48.176;11.792;2023-11-19T13:11:11;1.60;;;1.50;;
2656;SDS011;1338;48.176;11.792;2023-11-19T13:13:54;1.50;;;1.23;;
2656;SDS011;1338;48.176;11.792;2023-11-19T13:16:24;1.60;;;1.47;;
2656;SDS011;1338;48.176;11.792;2023-11-19T13:18:57;1.57;;;1.47;;
2656;SDS011;1338;48.176;11.792;2023-11-19T13:21:29;1.50;;;1.40;;
2656;SDS011;1338;48.176;11.792;2023-11-19T13:24:00;5.07;;;4.43;;
2656;SDS011;1338;48.176;11.792;2023-11-19T13:26:29;1.40;;;1.30;;
2656;SDS011;1338;48.176;11.792;2023-11-19T13:28:57;2.97;;;2.77;;
2656;SDS011;1338;48.176;11.792;2023-11-19T13:31:26;1.80;;;1.60;;
2656;SDS011;1338;48.176;11.792;2023-11-19T13:33:54;1.50;;;1.40;;
2656;SDS011;1338;48.176;11.792;2023-11-19T13:36:29;1.50;;;1.40;;
2656;SDS011;1338;48.176;11.792;2023-11-19T13:38:59;1.50;;;1.40;;
2656;SDS011;1338;48.176;11.792;2023-11-19T13:41:29;1.43;;;1.33;;
2656;SDS011;1338;48.176;11.792;2023-11-19T13:43:58;1.57;;;1.47;;
2656;SDS011;1338;48.176;11.792;2023-11-19T13:46:27;2.43;;;1.57;;
2656;SDS011;1338;48.176;11.792;2023-11-19T13:48:58;1.50;;;1.33;;
2656;SDS011;1338;48.176;11.792;2023-11-19T13:51:29;1.60;;;1.50;;
2656;SDS011;1338;48.176;11.792;2023-11-19T13:53:58;1.80;;;1.70;;
2656;SDS011;1338;48.176;11.792;2023-11-19T13:56:30;1.73;;;1.60;;
2656;SDS011;1338;48.176;11.792;2023-11-19T13:58:59;1.87;;;1.77;;
2656;SDS011;1338;48.176;11.792;2023-11-19T14:01:30;1.50;;;1.40;;
2656;SDS011;1338;48.176;11.792;2023-11-19T14:04:01;1.60;;;1.50;;
2656;SDS011;1338;48.176;11.792;2023-11-19T14:06:29;2.30;;;1.70;;
2656;SDS011;1338;48.176;11.792;2023-11-19T14:09:02;1.40;;;1.30;;
2656;SDS011;1338;48.176;11.792;2023-11-19T14:11:34;1.73;;;1.63;;
2656;SDS011;1338;48.176;11.792;2023-11-19T14:14:09;1.60;;;1.50;;
2656;SDS011;1338;48.176;11.792;2023-11-19T14:16:38;1.87;;;1.53;;
2656;SDS011;1338;48.176;11.792;2023-11-19T14:19:10;1.50;;;1.40;;
2656;SDS011;1338;48.176;11.792;2023-11-19T14:21:43;1.60;;;1.50;;
2656;SDS011;1338;48.176;11.792;2023-11-19T14:24:12;2.00;;;1.63;;
2656;SDS011;1338;48.176;11.792;2023-11-19T14:26:40;1.60;;;1.50;;
2656;SDS011;1338;48.176;11.792;2023-11-19T14:29:10;1.80;;;1.70;;
2656;SDS011;1338;48.176;11.792;2023-11-19T14:31:41;1.60;;;1.27;;
2656;SDS011;1338;48.176;11.792;2023-11-19T14:34:11;1.60;;;1.50;;
2656;SDS011;1338;48.176;11.792;2023-11-19T14:36:42;1.70;;;1.60;;
2656;SDS011;1338;48.176;11.792;2023-11-19T14:39:12;1.53;;;1.43;;
2656;SDS011;1338;48.176;11.792;2023-11-19T14:41:42;1.50;;;1.40;;
2656;SDS011;1338;48.176;11.792;2023-11-19T14:44:11;1.40;;;1.30;;
2656;SDS011;1338;48.176;11.792;2023-11-19T14:46:41;1.43;;;1.33;;
2656;SDS011;1338;48.176;11.792;2023-11-19T14:49:11;1.43;;;1.33;;
2656;SDS011;1338;48.176;11.792;2023-11-19T14:51:40;1.50;;;1.40;;
2656;SDS011;1338;48.176;11.792;2023-11-19T14:54:10;1.70;;;1.60;;
2656;SDS011;1338;48.176;11.792;2023-11-19T14:56:42;1.40;;;1.30;;
2656;SDS011;1338;48.176;11.792;2023-11-19T14:59:12;1.53;;;1.43;;
2656;SDS011;1338;48.176;11.792;2023-11-19T15:01:41;1.60;;;1.50;;
2656;SDS011;1338;48.176;11.792;2023-11-19T15:04:15;1.60;;;1.50;;
2656;SDS011;1338;48.176;11.792;2023-11-19T15:06:44;1.63;;;1.53;;
2656;SDS011;1338;48.176;11.792;2023-11-19T15:09:14;1.70;;;1.60;;
2656;SDS011;1338;48.176;11.792;2023-11-19T15:11:44;1.30;;;1.20;;
2656;SDS011;1338;48.176;11.792;2023-11-19T15:14:13;1.40;;;1.30;;
2656;SDS011;1338;48.176;11.792;2023-11-19T15:16:46;2.03;;;1.60;;
2656;SDS011;1338;48.176;11.792;2023-11-19T15:19:21;1.43;;;1.33;;
2656;SDS011;1338;48.176;11.792;2023-11-19T15:21:53;1.77;;;1.60;;
2656;SDS011;1338;48.176;11.792;2023-11-19T15:24:24;1.50;;;1.40;;
2656;SDS011;1338;48.176;11.792;2023-11-19T15:26:52;1.60;;;1.50;;